Time;durP1;ratioP1;P1;durP2;ratioP2;P2;SDS_P1;SDS_P2;PMS_P1;PMS_P2;Temp;Humidity;BMP_temperature;BMP_pressure;BME280_temperature;BME280_humidity;BME280_pressure;Samples;Min_cycle;Max_cycle;Signal;HPM_P1;HPM_P2
2021/03/01 00:01:51;;;;;;;1999.90;999.90;;;3.50;99.90;;;;;;5038023;28;20502;-81
2021/03/01 00:04:17;;;;;;;1999.90;999.90;;;3.40;99.90;;;;;;5038077;28;20256;-81
2021/03/01 00:06:46;;;;;;;1999.90;999.90;;;3.40;99.90;;;;;;5038121;28;20185;-80
2021/03/01 00:09:12;;;;;;;1999.90;999.90;;;3.40;99.90;;;;;;5036605;28;20177;-81
2021/03/01 00:11:46;;;;;;;1999.90;999.90;;;3.30;99.90;;;;;;5038590;28;20639;-81
2021/03/01 00:14:12;;;;;;;1999.90;999.90;;;3.40;99.90;;;;;;5020325;28;20188;-81
2021/03/01 00:16:37;;;;;;;1999.90;999.90;;;3.40;99.90;;;;;;5036535;28;20666;-81
2021/03/01 00:19:03;;;;;;;1999.90;999.90;;;3.40;99.90;;;;;;5037191;28;20168;-81
2021/03/01 00:21:29;;;;;;;1999.90;999.90;;;3.30;99.90;;;;;;5037520;28;20165;-81
2021/03/01 00:23:54;;;;;;;1999.90;999.90;;;3.20;99.90;;;;;;5038342;28;20248;-81
2021/03/01 00:26:20;;;;;;;1999.90;999.90;;;3.20;99.90;;;;;;5037861;28;20625;-81
2021/03/01 00:28:46;;;;;;;1999.90;999.90;;;3.10;99.90;;;;;;5037934;28;20172;-81
2021/03/01 00:31:12;;;;;;;1999.90;999.90;;;3.10;99.90;;;;;;5036650;28;20256;-81
2021/03/01 00:33:37;;;;;;;1999.90;999.90;;;3.10;99.90;;;;;;5037560;28;20280;-81
2021/03/01 00:36:03;;;;;;;1999.90;999.90;;;3.10;99.90;;;;;;5037330;28;20166;-81
2021/03/01 00:38:29;;;;;;;1999.90;999.90;;;3.10;99.90;;;;;;5035948;28;20268;-81
2021/03/01 00:40:55;;;;;;;1999.90;999.90;;;3.00;99.90;;;;;;5036204;28;20440;-81
2021/03/01 00:43:20;;;;;;;1999.90;999.90;;;2.90;99.90;;;;;;5037377;28;20165;-81
2021/03/01 00:45:46;;;;;;;1999.90;999.90;;;2.90;99.90;;;;;;5037198;28;20169;-81
2021/03/01 00:48:12;;;;;;;1999.90;999.90;;;2.90;99.90;;;;;;5037289;28;20407;-80
2021/03/01 00:50:38;;;;;;;1999.90;999.90;;;2.90;99.90;;;;;;5037570;28;20450;-81
2021/03/01 00:53:03;;;;;;;1999.90;999.90;;;2.90;99.90;;;;;;5036678;28;20503;-81
2021/03/01 00:55:29;;;;;;;1999.90;999.90;;;2.90;99.90;;;;;;5037324;28;20271;-81
2021/03/01 00:57:55;;;;;;;1999.90;999.90;;;2.90;99.90;;;;;;5038574;28;20192;-81
2021/03/01 01:00:21;;;;;;;1999.90;999.90;;;2.80;99.90;;;;;;5045549;28;20188;-80
2021/03/01 01:02:47;;;;;;;1999.90;999.90;;;2.70;99.90;;;;;;5045989;28;20169;-80
2021/03/01 01:05:13;;;;;;;1999.90;999.90;;;2.70;99.90;;;;;;5040310;28;20176;-81
2021/03/01 01:07:39;;;;;;;1999.90;999.90;;;2.60;99.90;;;;;;5035603;28;20252;-80
2021/03/01 01:10:06;;;;;;;1999.90;999.90;;;2.60;99.90;;;;;;5036692;28;20555;-80
2021/03/01 01:12:36;;;;;;;1999.90;999.90;;;2.60;99.90;;;;;;5035328;28;20207;-80
2021/03/01 01:15:05;;;;;;;1999.90;999.90;;;2.60;99.90;;;;;;5036846;28;20208;-80
2021/03/01 01:17:31;;;;;;;1999.90;999.90;;;2.60;99.90;;;;;;5036418;28;20252;-80
2021/03/01 01:19:56;;;;;;;1999.90;999.90;;;2.60;99.90;;;;;;5036563;28;20315;-80
2021/03/01 01:22:22;;;;;;;1999.90;999.90;;;2.50;99.90;;;;;;5037031;28;20169;-80
2021/03/01 01:24:48;;;;;;;1999.90;999.90;;;2.50;99.90;;;;;;5036592;28;20165;-81
2021/03/01 01:27:13;;;;;;;1999.90;999.90;;;2.60;99.90;;;;;;5036873;28;20189;-81
2021/03/01 01:29:39;;;;;;;1999.90;999.90;;;2.60;99.90;;;;;;5036152;28;20173;-80
2021/03/01 01:32:05;;;;;;;1999.90;999.90;;;2.50;99.90;;;;;;5036365;28;20193;-80
2021/03/01 01:34:30;;;;;;;1999.90;999.90;;;2.40;99.90;;;;;;5036248;28;20197;-80
2021/03/01 01:36:56;;;;;;;1999.90;999.90;;;2.40;99.90;;;;;;5036561;28;20272;-80
2021/03/01 01:39:22;;;;;;;1999.90;999.90;;;2.40;99.90;;;;;;5034622;28;20211;-80
2021/03/01 01:41:47;;;;;;;1999.90;999.90;;;2.30;99.90;;;;;;5036408;28;20168;-80
2021/03/01 01:44:13;;;;;;;1999.90;999.90;;;2.40;99.90;;;;;;5036365;28;20165;-80
2021/03/01 01:46:39;;;;;;;1999.90;999.90;;;2.30;99.90;;;;;;5035086;28;20178;-80
2021/03/01 01:49:04;;;;;;;1999.90;999.90;;;2.30;99.90;;;;;;5034593;28;20180;-80
2021/03/01 01:51:30;;;;;;;1999.90;999.90;;;2.20;99.90;;;;;;5035982;28;20161;-80
2021/03/01 01:53:56;;;;;;;1999.90;999.90;;;2.10;99.90;;;;;;5036078;28;20193;-80
2021/03/01 01:56:22;;;;;;;1999.90;999.90;;;2.20;99.90;;;;;;5036078;28;20162;-80
2021/03/01 01:58:47;;;;;;;1999.90;999.90;;;2.10;99.90;;;;;;5036311;28;20557;-81
2021/03/01 02:01:13;;;;;;;1999.90;999.90;;;2.10;99.90;;;;;;5036357;28;20164;-81
2021/03/01 02:03:48;;;;;;;1999.90;999.90;;;2.10;99.90;;;;;;5036092;28;20180;-80
2021/03/01 02:06:40;;;;;;;1999.90;999.90;;;2.10;99.90;;;;;;5034690;28;20157;-81
2021/03/01 02:12:53;;;;;;;;;;;;;;;;;;;;;
2021/03/01 02:34:04;;;;;;;;;;;;;;;;;;;;;
2021/03/01 02:37:35;;;;;;;;;;;;;;;;;;;;;
2021/03/01 02:48:12;;;;;;;1999.90;999.90;;;1.80;99.90;;;;;;4895531;29;20175;-85
2021/03/01 02:55:17;;;;;;;1999.90;999.90;;;1.70;99.90;;;;;;4870176;29;20229;-85
2021/03/01 03:02:45;;;;;;;;;;;;;;;;;;;;;
2021/03/01 03:12:47;;;;;;;;;;;;;;;;;;;;;
2021/03/01 03:15:59;;;;;;;1999.90;999.90;;;1.60;99.90;;;;;;4880065;29;20397;-85
2021/03/01 03:19:35;;;;;;;1999.90;999.90;;;1.60;99.90;;;;;;4907199;29;20195;-85
2021/03/01 03:36:44;;;;;;;;;;;;;;;;;;;;;
2021/03/01 03:50:27;;;;;;;1999.90;999.90;;;1.40;99.90;;;;;;4983252;28;20167;-85
2021/03/01 03:54:00;;;;;;;1999.90;999.90;;;1.30;99.90;;;;;;4907018;29;20185;-85
2021/03/01 04:00:37;;;;;;;1999.90;999.90;;;1.30;99.90;;;;;;4814532;29;20185;-85
2021/03/01 04:18:18;;;;;;;1999.90;999.90;;;1.20;99.90;;;;;;4971987;28;20174;-85
2021/03/01 04:25:14;;;;;;;1999.90;999.90;;;1.30;99.90;;;;;;4925880;29;20181;-85
2021/03/01 04:34:54;;;;;;;;;;;;;;;;;;;;;
2021/03/01 04:38:16;;;;;;;;;;;;;;;;;;;;;
2021/03/01 05:10:21;;;;;;;;;;;;;;;;;;;;;
2021/03/01 05:24:15;;;;;;;1999.90;999.90;;;0.80;99.90;;;;;;5018024;28;20188;-85
2021/03/01 05:27:39;;;;;;;1999.90;999.90;;;0.80;99.90;;;;;;4943121;29;20219;-85
2021/03/01 05:34:41;;;;;;;;;;;;;;;;;;;;;
2021/03/01 05:45:13;;;;;;;;;;;;;;;;;;;;;
2021/03/01 05:51:44;;;;;;;1999.90;999.90;;;0.80;99.90;;;;;;4866277;29;20177;-85
2021/03/01 05:55:01;;;;;;;1999.90;999.90;;;0.80;99.90;;;;;;4845044;29;20219;-85
2021/03/01 06:22:32;;;;;;;1999.90;999.90;;;0.60;99.90;;;;;;4830030;29;20241;-85
2021/03/01 06:25:57;;;;;;;1999.90;999.90;;;0.70;99.90;;;;;;4827930;29;20180;-85
2021/03/01 06:29:13;;;;;;;1999.90;999.90;;;0.70;99.90;;;;;;4830093;29;20210;-86
2021/03/01 06:35:50;;;;;;;;;;;;;;;;;;;;;
2021/03/01 06:56:00;;;;;;;1999.90;999.90;;;0.60;99.90;;;;;;4975879;28;20668;-86
2021/03/01 06:58:48;;;;;;;1999.90;999.90;;;0.60;99.90;;;;;;5013341;28;20166;-87
2021/03/01 07:12:53;;;;;;;;;;;;;;;;;;;;;
2021/03/01 07:19:47;;;;;;;1999.90;999.90;;;1.00;99.90;;;;;;4876329;29;20199;-88
2021/03/01 07:26:09;;;;;;;1999.90;999.90;;;1.20;99.90;;;;;;4875525;28;20658;-87
2021/03/01 07:32:47;;;;;;;1999.90;999.90;;;1.30;99.90;;;;;;4958800;29;20195;-85
2021/03/01 07:36:07;;;;;;;1999.90;999.90;;;1.40;99.90;;;;;;4942096;28;20570;-85
2021/03/01 07:38:36;;;;;;;1999.90;999.90;;;1.60;99.90;;;;;;4951790;28;20196;-85
2021/03/01 07:41:06;;;;;;;1999.90;999.90;;;1.70;99.90;;;;;;5023753;28;20224;-85
2021/03/01 07:43:44;;;;;;;1999.90;999.90;;;1.80;99.90;;;;;;5025346;28;20524;-85
2021/03/01 07:46:13;;;;;;;1999.90;999.90;;;1.90;99.90;;;;;;5024805;28;20510;-85
2021/03/01 07:48:48;;;;;;;1999.90;999.90;;;2.00;99.90;;;;;;5041544;28;20208;-85
2021/03/01 07:51:13;;;;;;;1999.90;999.90;;;2.10;99.90;;;;;;5023626;28;20165;-85
2021/03/01 07:53:53;;;;;;;1999.90;999.90;;;2.20;99.90;;;;;;5021065;28;20181;-85
2021/03/01 07:56:24;;;;;;;1999.90;999.90;;;2.30;99.90;;;;;;5023509;28;21003;-85
2021/03/01 07:59:11;;;;;;;1999.90;999.90;;;2.30;99.90;;;;;;5024863;28;20162;-85
2021/03/01 08:02:09;;;;;;;1999.90;999.90;;;2.40;99.90;;;;;;5023923;28;20166;-86
2021/03/01 08:04:43;;;;;;;1999.90;999.90;;;2.40;99.90;;;;;;5024159;28;20673;-85
2021/03/01 08:07:34;;;;;;;1999.90;999.90;;;2.50;99.90;;;;;;5022440;28;20216;-86
2021/03/01 08:10:40;;;;;;;1999.90;999.90;;;2.60;99.90;;;;;;5021656;28;20170;-86
2021/03/01 08:13:34;;;;;;;1999.90;999.90;;;2.70;99.90;;;;;;5023408;28;20177;-85
2021/03/01 08:16:31;;;;;;;1999.90;999.90;;;2.80;99.90;;;;;;5024089;28;20158;-86
2021/03/01 08:19:03;;;;;;;1999.90;999.90;;;2.90;99.90;;;;;;5024201;28;20185;-86
2021/03/01 08:22:15;;;;;;;1999.90;999.90;;;3.00;99.90;;;;;;5024900;28;20180;-85
2021/03/01 08:25:06;;;;;;;1999.90;999.90;;;3.00;99.90;;;;;;5022815;28;20654;-86
2021/03/01 08:27:46;;;;;;;1999.90;999.90;;;3.10;99.90;;;;;;5020899;28;20166;-86
2021/03/01 08:30:59;;;;;;;1999.90;999.90;;;3.20;99.90;;;;;;5020229;28;20240;-86
2021/03/01 08:33:25;;;;;;;1999.90;999.90;;;3.30;99.90;;;;;;5021287;28;20517;-86
2021/03/01 08:36:02;;;;;;;;;;;;;;;;;;;;;
2021/03/01 08:39:25;;;;;;;1999.90;999.90;;;3.40;99.90;;;;;;5017026;28;20146;-86
2021/03/01 08:42:32;;;;;;;;;;;;;;;;;;;;;
2021/03/01 08:45:01;;;;;;;1999.90;999.90;;;3.60;99.90;;;;;;5001777;28;20265;-85
2021/03/01 08:51:13;;;;;;;1999.90;999.90;;;3.70;99.90;;;;;;4959487;28;20255;-85
2021/03/01 08:57:19;;;;;;;;;;;;;;;;;;;;;
2021/03/01 09:00:26;;;;;;;1999.90;999.90;;;3.90;99.90;;;;;;4993060;28;20166;-85
2021/03/01 09:03:46;;;;;;;1999.90;999.90;;;4.10;99.90;;;;;;4995259;28;20618;-85
2021/03/01 09:07:15;;;;;;;;;;;;;;;;;;;;;
2021/03/01 09:14:25;;;;;;;;;;;;;;;;;;;;;
2021/03/01 09:34:36;;;;;;;1999.90;999.90;;;5.30;99.90;;;;;;4943221;28;20196;-84
2021/03/01 09:37:22;;;;;;;1999.90;999.90;;;5.40;99.90;;;;;;4986529;28;20207;-85
2021/03/01 09:40:16;;;;;;;;;;;;;;;;;;;;;
2021/03/01 09:42:54;;;;;;;1999.90;999.90;;;5.60;99.90;;;;;;5019848;28;20245;-85
2021/03/01 09:45:46;;;;;;;;;;;;;;;;;;;;;
2021/03/01 09:48:31;;;;;;;1999.90;999.90;;;5.90;99.90;;;;;;5019624;28;20241;-84
2021/03/01 09:51:16;;;;;;;1999.90;999.90;;;6.00;99.90;;;;;;5016499;28;20174;-85
2021/03/01 09:54:16;;;;;;;1999.90;999.90;;;6.10;99.90;;;;;;5020807;28;20549;-85
2021/03/01 09:56:56;;;;;;;1999.90;999.90;;;6.30;99.90;;;;;;4984269;28;20597;-85
2021/03/01 10:00:06;;;;;;;1999.90;999.90;;;6.40;99.90;;;;;;5000756;28;20230;-85
2021/03/01 10:03:21;;;;;;;1999.90;999.90;;;6.50;99.90;;;;;;4971791;28;20183;-85
2021/03/01 10:06:10;;;;;;;1999.90;999.90;;;6.60;99.90;;;;;;4945458;28;20171;-86
2021/03/01 10:09:01;;;;;;;1999.90;999.90;;;6.80;99.90;;;;;;4975739;28;20206;-86
2021/03/01 10:11:59;;;;;;;1999.90;999.90;;;7.10;99.90;;;;;;4984037;28;20166;-85
2021/03/01 10:14:40;;;;;;;1999.90;999.90;;;7.40;99.90;;;;;;5004144;28;20204;-85
2021/03/01 10:17:28;;;;;;;1999.90;999.90;;;7.60;99.90;;;;;;5022900;28;20157;-85
2021/03/01 10:20:26;;;;;;;1999.90;999.90;;;7.70;99.90;;;;;;5020604;28;20151;-85
2021/03/01 10:23:11;;;;;;;1999.90;999.90;;;7.80;99.90;;;;;;5018135;28;20181;-84
2021/03/01 10:25:39;;;;;;;1999.90;999.90;;;8.00;99.90;;;;;;5017614;28;20214;-84
2021/03/01 10:28:23;;;;;;;1999.90;999.90;;;8.10;99.90;;;;;;5018618;28;20173;-85
2021/03/01 10:31:22;;;;;;;1999.90;999.90;;;8.30;99.90;;;;;;5021004;28;20236;-84
2021/03/01 10:33:57;;;;;;;1999.90;999.90;;;8.50;99.90;;;;;;5010768;28;20180;-84
2021/03/01 10:36:52;;;;;;;1999.90;999.90;;;8.70;99.90;;;;;;5018388;28;20157;-84
2021/03/01 10:39:23;;;;;;;1999.90;999.90;;;8.80;99.90;;;;;;5015746;28;20209;-85
2021/03/01 10:42:13;;;;;;;1999.90;999.90;;;9.00;99.90;;;;;;5015894;28;20143;-84
2021/03/01 10:45:24;;;;;;;;;;;;;;;;;;;;;
2021/03/01 10:48:57;;;;;;;1999.90;999.90;;;9.00;99.90;;;;;;5015694;28;20170;-85
2021/03/01 10:52:20;;;;;;;1999.90;999.90;;;9.10;99.90;;;;;;4994484;28;20167;-85
2021/03/01 10:55:58;;;;;;;1999.90;999.90;;;9.20;99.90;;;;;;4918666;29;20192;-84
2021/03/01 11:02:24;;;;;;;1999.90;999.90;;;9.60;99.90;;;;;;4979057;28;20178;-85
2021/03/01 11:04:53;;;;;;;1999.90;999.90;;;9.70;99.90;;;;;;4969390;28;20183;-85
2021/03/01 11:07:19;;;;;;;1999.90;999.90;;;9.80;99.90;;;;;;5024958;28;20177;-85
2021/03/01 11:09:45;;;;;;;1999.90;999.90;;;10.00;99.90;;;;;;5025234;28;20534;-86
2021/03/01 11:12:11;;;;;;;1999.90;999.90;;;10.00;99.90;;;;;;5021578;28;20325;-86
2021/03/01 11:14:38;;;;;;;1999.90;999.90;;;10.10;99.90;;;;;;5021016;28;20449;-85
2021/03/01 11:17:06;;;;;;;1999.90;999.90;;;10.30;99.90;;;;;;5022347;28;20185;-86
2021/03/01 11:19:58;;;;;;;1999.90;999.90;;;10.30;98.70;;;;;;5019915;28;20166;-86
2021/03/01 11:22:23;;;;;;;1999.90;999.90;;;10.30;95.00;;;;;;5022263;28;20223;-85
2021/03/01 11:26:09;;;;;;;;;;;;;;;;;;;;;
2021/03/01 11:28:50;;;;;;;1999.90;999.90;;;10.50;95.20;;;;;;4995322;28;20499;-85
2021/03/01 11:31:42;;;;;;;1999.90;999.90;;;10.60;86.30;;;;;;5021018;28;20233;-86
2021/03/01 11:34:09;;;;;;;1999.90;999.90;;;10.70;82.60;;;;;;5022327;28;20221;-85
2021/03/01 11:36:38;;;;;;;1999.90;999.90;;;10.90;82.50;;;;;;5025432;28;20201;-85
2021/03/01 11:39:14;;;;;;;1999.90;999.90;;;10.90;86.60;;;;;;5024807;28;20700;-85
2021/03/01 11:41:43;;;;;;;1999.90;999.90;;;10.90;76.90;;;;;;5020773;28;20211;-86
2021/03/01 11:44:27;;;;;;;1999.90;999.90;;;11.10;91.10;;;;;;5020345;28;20174;-86
2021/03/01 11:47:23;;;;;;;1999.90;999.90;;;11.30;84.70;;;;;;5020032;28;20257;-86
2021/03/01 11:49:49;;;;;;;1999.90;999.90;;;11.40;64.10;;;;;;5023339;28;20169;-86
2021/03/01 11:52:33;;;;;;;1999.90;999.90;;;11.50;65.90;;;;;;5020290;28;20163;-85
2021/03/01 11:54:59;;;;;;;1999.90;999.90;;;11.60;61.60;;;;;;5019786;28;20502;-86
2021/03/01 11:57:31;;;;;;;1999.90;999.90;;;11.80;58.70;;;;;;5018628;28;20308;-85
2021/03/01 12:00:00;;;;;;;1999.90;999.90;;;11.90;62.00;;;;;;5017578;28;20166;-85
2021/03/01 12:02:29;;;;;;;1999.90;999.90;;;12.10;43.40;;;;;;5016102;28;20522;-85
2021/03/01 12:04:55;;;;;;;1999.90;999.90;;;12.20;38.80;;;;;;5017561;28;20224;-85
2021/03/01 12:07:47;;;;;;;1999.90;999.90;;;12.20;34.60;;;;;;5017514;28;20577;-85
2021/03/01 12:10:20;;;;;;;1999.90;999.90;;;12.30;28.00;;;;;;5016321;28;20225;-85
2021/03/01 12:13:10;;;;;;;1999.90;999.90;;;12.40;26.70;;;;;;5016970;28;20236;-85
2021/03/01 12:15:49;;;;;;;;;;;;;;;;;;;;;
2021/03/01 12:18:25;;;;;;;1999.90;999.90;;;12.50;19.00;;;;;;5019654;28;20248;-86
2021/03/01 12:21:02;;;;;;;1999.90;999.90;;;12.40;15.60;;;;;;5017539;28;20150;-86
2021/03/01 12:26:33;;;;;;;1999.90;999.90;;;12.60;16.30;;;;;;4936272;29;20649;-86
2021/03/01 12:29:34;;;;;;;1999.90;999.90;;;12.70;12.80;;;;;;5009810;28;20181;-86
2021/03/01 12:32:18;;;;;;;1999.90;999.90;;;12.70;7.50;;;;;;5014455;28;20227;-86
2021/03/01 12:34:55;;;;;;;1999.90;999.90;;;12.70;4.90;;;;;;5014154;28;20275;-86
2021/03/01 12:37:20;;;;;;;1999.90;999.90;;;12.70;3.00;;;;;;5030946;28;20583;-86
2021/03/01 12:39:52;;;;;;;1999.90;999.90;;;12.70;1.00;;;;;;5016576;28;20185;-86
2021/03/01 12:42:18;;;;;;;1999.90;999.90;;;12.70;1.00;;;;;;5032433;28;20179;-86
2021/03/01 12:44:46;;;;;;;1999.90;999.90;;;12.80;1.00;;;;;;5016797;28;20249;-86
2021/03/01 12:47:40;;;;;;;1999.90;999.90;;;12.90;1.00;;;;;;5017238;28;20166;-86
2021/03/01 12:51:03;;;;;;;1999.90;999.90;;;13.00;1.00;;;;;;5017685;28;20166;-86
2021/03/01 12:54:17;;;;;;;1999.90;999.90;;;13.00;1.00;;;;;;4994278;28;20187;-86
2021/03/01 12:57:03;;;;;;;1999.90;999.90;;;13.10;1.00;;;;;;4939028;28;20675;-86
2021/03/01 12:59:29;;;;;;;1999.90;999.90;;;13.00;1.00;;;;;;4983971;28;20504;-86
2021/03/01 13:02:40;;;;;;;1999.90;999.90;;;13.10;1.00;;;;;;5013387;28;20220;-86
2021/03/01 13:05:22;;;;;;;1999.90;999.90;;;13.10;1.00;;;;;;5004098;28;20190;-85
2021/03/01 13:07:48;;;;;;;1999.90;999.90;;;13.10;1.00;;;;;;5016696;28;20181;-85
2021/03/01 13:10:58;;;;;;;1999.90;999.90;;;13.10;1.00;;;;;;5022373;28;20161;-85
2021/03/01 13:13:29;;;;;;;1999.90;999.90;;;13.20;1.00;;;;;;5002830;28;20173;-85
2021/03/01 13:17:12;;;;;;;;;;;;;;;;;;;;;
2021/03/01 13:19:56;;;;;;;1999.90;999.90;;;13.30;1.00;;;;;;5002277;28;20277;-85
2021/03/01 13:25:58;;;;;;;1999.90;999.90;;;13.20;1.00;;;;;;5024419;28;20193;-85
2021/03/01 13:32:25;;;;;;;1999.90;999.90;;;13.30;1.00;;;;;;4984092;28;20176;-85
2021/03/01 13:35:55;;;;;;;1999.90;999.90;;;13.30;1.00;;;;;;4965036;28;20275;-85
2021/03/01 13:45:30;;;;;;;1999.90;999.90;;;13.30;1.00;;;;;;4940546;28;20223;-85
2021/03/01 13:48:21;;;;;;;;;;;;;;;;;;;;;
2021/03/01 13:50:47;;;;;;;1999.90;999.90;;;13.40;1.00;;;;;;4990859;28;20245;-85
2021/03/01 13:53:40;;;;;;;1999.90;999.90;;;13.50;1.00;;;;;;5022627;28;20216;-85
2021/03/01 13:59:35;;;;;;;1999.90;999.90;;;13.50;1.00;;;;;;5091212;22;20290;-80
2021/03/01 14:02:19;;;;;;;1999.90;999.90;;;13.40;1.00;;;;;;5050172;28;20168;-80
2021/03/01 14:04:53;;;;;;;1999.90;999.90;;;13.40;1.00;;;;;;5034510;28;20157;-80
2021/03/01 14:07:31;;;;;;;1999.90;999.90;;;13.50;1.00;;;;;;5035889;28;20547;-80
2021/03/01 14:10:14;;;;;;;1999.90;999.90;;;13.40;1.00;;;;;;5045864;28;20720;-79
2021/03/01 14:12:40;;;;;;;1999.90;999.90;;;13.40;1.00;;;;;;5044500;28;20149;-80
2021/03/01 14:15:08;;;;;;;1999.90;999.90;;;13.50;1.00;;;;;;5034754;28;20224;-80
2021/03/01 14:17:36;;;;;;;1999.90;999.90;;;13.50;1.00;;;;;;5033656;28;20176;-80
2021/03/01 14:20:05;;;;;;;1999.90;999.90;;;13.50;1.00;;;;;;5035002;28;20262;-80
2021/03/01 14:22:32;;;;;;;1999.90;999.90;;;13.60;1.00;;;;;;5034112;28;20161;-80
2021/03/01 14:25:01;;;;;;;1999.90;999.90;;;13.60;1.00;;;;;;5033915;28;20169;-80
2021/03/01 14:27:32;;;;;;;1999.90;999.90;;;13.50;1.00;;;;;;5034017;28;20635;-80
2021/03/01 14:30:09;;;;;;;1999.90;999.90;;;13.50;1.00;;;;;;5035170;28;20531;-80
2021/03/01 14:32:35;;;;;;;1999.90;999.90;;;13.50;1.00;;;;;;5033804;28;20169;-80
2021/03/01 14:35:06;;;;;;;1999.90;999.90;;;13.60;1.00;;;;;;5035209;28;20659;-80
2021/03/01 14:37:32;;;;;;;1999.90;999.90;;;13.60;1.00;;;;;;5037731;28;20165;-80
2021/03/01 14:39:58;;;;;;;1999.90;999.90;;;13.60;1.00;;;;;;5038174;28;20165;-80
2021/03/01 14:42:24;;;;;;;1999.90;999.90;;;13.60;1.00;;;;;;5039193;28;20234;-80
2021/03/01 14:44:52;;;;;;;1999.90;999.90;;;13.60;1.00;;;;;;5039966;28;20407;-81
2021/03/01 14:47:18;;;;;;;1999.90;999.90;;;13.60;1.00;;;;;;5039711;28;20174;-80
2021/03/01 14:49:59;;;;;;;1999.90;999.90;;;13.70;1.00;;;;;;5038541;28;20268;-80
2021/03/01 14:52:24;;;;;;;1999.90;999.90;;;13.80;1.00;;;;;;5038216;28;20149;-80
2021/03/01 14:55:00;;;;;;;;;;;;;;;;;;;;;
2021/03/01 14:57:26;;;;;;;1999.90;999.90;;;13.80;1.00;;;;;;5039529;28;20553;-81
2021/03/01 15:00:00;;;;;;;1999.90;999.90;;;13.80;1.00;;;;;;5039599;28;20644;-80
2021/03/01 15:02:26;;;;;;;1999.90;999.90;;;13.90;1.00;;;;;;5039157;28;20153;-80
2021/03/01 15:04:58;;;;;;;1999.90;999.90;;;13.90;1.00;;;;;;5037849;28;20169;-80
2021/03/01 15:07:29;;;;;;;1999.90;999.90;;;13.90;1.00;;;;;;5038969;28;20161;-80
2021/03/01 15:09:56;;;;;;;1999.90;999.90;;;13.90;1.00;;;;;;5037469;28;20161;-80
2021/03/01 15:12:24;;;;;;;1999.90;999.90;;;13.90;1.00;;;;;;5053394;28;20214;-80
2021/03/01 15:14:50;;;;;;;1999.90;999.90;;;14.00;1.00;;;;;;5038331;28;20267;-79
2021/03/01 15:17:16;;;;;;;1999.90;999.90;;;14.00;1.00;;;;;;5036604;28;20195;-79
2021/03/01 15:19:52;;;;;;;1999.90;999.90;;;14.00;1.00;;;;;;5037137;28;20176;-80
2021/03/01 15:22:18;;;;;;;1999.90;999.90;;;14.00;1.00;;;;;;5038237;28;20176;-78
2021/03/01 15:24:43;;;;;;;1999.90;999.90;;;14.10;1.00;;;;;;5038590;28;20165;-80
2021/03/01 15:27:09;;;;;;;1999.90;999.90;;;14.20;1.00;;;;;;5038021;28;20240;-80
2021/03/01 15:29:35;;;;;;;1999.90;999.90;;;14.20;1.00;;;;;;5038785;28;20419;-79
2021/03/01 15:32:01;;;;;;;1999.90;999.90;;;14.20;1.00;;;;;;5037414;28;20165;-80
2021/03/01 15:34:27;;;;;;;1999.90;999.90;;;14.30;1.00;;;;;;5037703;28;20273;-80
2021/03/01 15:36:52;;;;;;;1999.90;999.90;;;14.20;1.00;;;;;;5036579;28;20942;-80
2021/03/01 15:39:21;;;;;;;1999.90;999.90;;;14.30;1.00;;;;;;5038199;28;20527;-80
2021/03/01 15:41:49;;;;;;;1999.90;999.90;;;14.30;1.00;;;;;;5038483;28;20153;-79
2021/03/01 15:44:14;;;;;;;1999.90;999.90;;;14.20;1.00;;;;;;5038260;28;20445;-80
2021/03/01 15:46:40;;;;;;;1999.90;999.90;;;14.20;1.00;;;;;;5035969;28;20408;-80
2021/03/01 15:49:10;;;;;;;1999.90;999.90;;;14.10;1.00;;;;;;5037694;28;20227;-80
2021/03/01 15:51:38;;;;;;;1999.90;999.90;;;14.10;1.00;;;;;;5037908;28;20189;-80
2021/03/01 15:54:07;;;;;;;1999.90;999.90;;;14.10;1.00;;;;;;5037337;28;20538;-80
2021/03/01 15:56:36;;;;;;;1999.90;999.90;;;14.10;1.00;;;;;;5037383;28;20162;-79
2021/03/01 15:59:13;;;;;;;1999.90;999.90;;;14.10;1.00;;;;;;5036178;28;20446;-80
2021/03/01 16:01:41;;;;;;;1999.90;999.90;;;14.10;1.00;;;;;;5037550;28;20384;-78
2021/03/01 16:04:10;;;;;;;1999.90;999.90;;;14.00;1.00;;;;;;5037355;28;20403;-79
2021/03/01 16:06:36;;;;;;;1999.90;999.90;;;14.00;1.00;;;;;;5037237;28;20165;-80
2021/03/01 16:09:02;;;;;;;1999.90;999.90;;;14.10;1.00;;;;;;5036876;28;20400;-78
2021/03/01 16:11:27;;;;;;;1999.90;999.90;;;14.00;1.00;;;;;;5037536;28;20158;-78
2021/03/01 16:13:55;;;;;;;1999.90;999.90;;;14.00;1.00;;;;;;5037010;28;20962;-78
2021/03/01 16:16:20;;;;;;;1999.90;999.90;;;14.00;1.00;;;;;;5037014;28;20162;-80
2021/03/01 16:18:46;;;;;;;1999.90;999.90;;;14.00;1.00;;;;;;5037230;28;20172;-80
2021/03/01 16:21:12;;;;;;;1999.90;999.90;;;14.00;1.00;;;;;;5037283;28;20158;-80
2021/03/01 16:23:37;;;;;;;1999.90;999.90;;;14.00;1.00;;;;;;5037073;28;20621;-80
2021/03/01 16:26:05;;;;;;;1999.90;999.90;;;14.00;1.00;;;;;;5037044;28;20193;-80
2021/03/01 16:28:31;;;;;;;1999.90;999.90;;;13.90;1.00;;;;;;5037157;28;20165;-81
2021/03/01 16:31:03;;;;;;;1999.90;999.90;;;13.90;1.00;;;;;;5037069;28;20461;-80
2021/03/01 16:33:28;;;;;;;1999.90;999.90;;;13.80;1.00;;;;;;5037067;28;20175;-79
2021/03/01 16:35:54;;;;;;;1999.90;999.90;;;13.70;1.00;;;;;;5035601;28;20200;-80
2021/03/01 16:38:20;;;;;;;1999.90;999.90;;;13.70;1.00;;;;;;5035233;28;20411;-80
2021/03/01 16:40:46;;;;;;;1999.90;999.90;;;13.60;1.00;;;;;;5035599;28;20223;-80
2021/03/01 16:43:14;;;;;;;1999.90;999.90;;;13.50;1.00;;;;;;5035361;28;20165;-80
2021/03/01 16:45:46;;;;;;;1999.90;999.90;;;13.40;1.00;;;;;;5036410;28;20197;-80
2021/03/01 16:48:14;;;;;;;1999.90;999.90;;;13.40;1.00;;;;;;5036881;28;20384;-80
2021/03/01 16:50:43;;;;;;;1999.90;999.90;;;13.40;1.00;;;;;;5034837;28;20514;-80
2021/03/01 16:53:12;;;;;;;1999.90;999.90;;;13.30;1.00;;;;;;5035908;28;20972;-80
2021/03/01 16:55:38;;;;;;;1999.90;999.90;;;13.30;1.00;;;;;;5036265;28;20208;-80
2021/03/01 16:58:04;;;;;;;1999.90;999.90;;;13.30;2.00;;;;;;5036868;28;20171;-80
2021/03/01 17:00:32;;;;;;;1999.90;999.90;;;13.20;4.00;;;;;;5034697;28;20191;-81
2021/03/01 17:03:05;;;;;;;1999.90;999.90;;;13.10;7.60;;;;;;5036265;28;20633;-80
2021/03/01 17:05:31;;;;;;;1999.90;999.90;;;13.10;11.40;;;;;;5034969;28;20154;-80
2021/03/01 17:08:02;;;;;;;1999.90;999.90;;;13.00;19.00;;;;;;5036009;28;20172;-81
2021/03/01 17:10:32;;;;;;;1999.90;999.90;;;13.00;22.80;;;;;;5036874;28;20416;-80
2021/03/01 17:13:05;;;;;;;1999.90;999.90;;;12.90;28.60;;;;;;5051917;28;20165;-80
2021/03/01 17:15:34;;;;;;;1999.90;999.90;;;12.80;38.30;;;;;;5036279;28;20189;-80
2021/03/01 17:18:00;;;;;;;1999.90;999.90;;;12.70;48.40;;;;;;5034778;28;20176;-80
2021/03/01 17:20:27;;;;;;;1999.90;999.90;;;12.60;56.30;;;;;;5034870;28;20667;-80
2021/03/01 17:22:54;;;;;;;1999.90;999.90;;;12.60;60.70;;;;;;5035724;28;20173;-80
2021/03/01 17:25:20;;;;;;;1999.90;999.90;;;12.50;64.80;;;;;;5034571;28;20176;-80
2021/03/01 17:27:47;;;;;;;1999.90;999.90;;;12.40;70.70;;;;;;5036006;28;20168;-80
2021/03/01 17:30:15;;;;;;;1999.90;999.90;;;12.30;78.80;;;;;;5035433;28;20439;-80
2021/03/01 17:32:44;;;;;;;1999.90;999.90;;;12.20;84.40;;;;;;5035837;28;20192;-80
2021/03/01 17:35:14;;;;;;;1999.90;999.90;;;12.20;86.60;;;;;;5034480;28;20197;-81
2021/03/01 17:37:47;;;;;;;1999.90;999.90;;;12.10;84.40;;;;;;5035887;28;20172;-81
2021/03/01 17:40:17;;;;;;;1999.90;999.90;;;11.90;91.70;;;;;;5035043;28;20225;-80
2021/03/01 17:42:44;;;;;;;1999.90;999.90;;;11.80;94.20;;;;;;5035579;28;20161;-80
2021/03/01 17:45:13;;;;;;;1999.90;999.90;;;11.60;97.50;;;;;;5035279;28;20252;-80
2021/03/01 17:47:55;;;;;;;1999.90;999.90;;;11.40;99.90;;;;;;5033910;28;20170;-80
2021/03/01 17:50:23;;;;;;;1999.90;999.90;;;11.20;99.90;;;;;;5033539;28;20157;-80
2021/03/01 17:53:00;;;;;;;1999.90;999.90;;;11.10;99.90;;;;;;5034650;28;20184;-80
2021/03/01 17:55:35;;;;;;;1999.90;999.90;;;10.90;99.90;;;;;;5033180;28;20221;-80
2021/03/01 17:58:04;;;;;;;1999.90;999.90;;;10.90;99.90;;;;;;5035014;28;20141;-80
2021/03/01 18:00:33;;;;;;;1999.90;999.90;;;10.80;99.90;;;;;;5033564;28;20188;-80
2021/03/01 18:03:11;;;;;;;1999.90;999.90;;;10.70;99.90;;;;;;5033402;28;20161;-80
2021/03/01 18:05:39;;;;;;;1999.90;999.90;;;10.50;99.90;;;;;;5034663;28;20167;-80
2021/03/01 18:08:17;;;;;;;1999.90;999.90;;;10.40;99.90;;;;;;5034739;28;20633;-80
2021/03/01 18:10:47;;;;;;;1999.90;999.90;;;10.30;99.90;;;;;;5033783;28;20153;-79
2021/03/01 18:13:24;;;;;;;1999.90;999.90;;;10.20;99.90;;;;;;5033948;28;20165;-79
2021/03/01 18:15:52;;;;;;;1999.90;999.90;;;10.10;99.90;;;;;;5033570;28;20181;-79